sensor_id;sensor_type;location;lat;lon;timestamp;temperature;humidity
14057;DHT22;7103;54.300;10.180;2023-05-14T00:01:11;10.00;1.00
14057;DHT22;7103;54.300;10.180;2023-05-14T00:03:38;9.90;1.00
14057;DHT22;7103;54.300;10.180;2023-05-14T00:06:06;9.90;1.00
14057;DHT22;7103;54.300;10.180;2023-05-14T00:08:35;9.90;1.00
14057;DHT22;7103;54.300;10.180;2023-05-14T00:11:02;9.90;1.00
14057;DHT22;7103;54.300;10.180;2023-05-14T00:13:29;9.90;1.00
14057;DHT22;7103;54.300;10.180;2023-05-14T00:15:56;9.90;1.00
14057;DHT22;7103;54.300;10.180;2023-05-14T00:18:23;9.80;1.00
14057;DHT22;7103;54.300;10.180;2023-05-14T00:20:50;9.80;1.00
14057;DHT22;7103;54.300;10.180;2023-05-14T00:23:21;9.90;1.00
14057;DHT22;7103;54.300;10.180;2023-05-14T00:25:48;9.80;1.00
14057;DHT22;7103;54.300;10.180;2023-05-14T00:28:15;9.80;1.00
14057;DHT22;7103;54.300;10.180;2023-05-14T00:30:43;9.70;1.00
14057;DHT22;7103;54.300;10.180;2023-05-14T00:33:09;9.80;1.00
14057;DHT22;7103;54.300;10.180;2023-05-14T00:35:36;9.70;1.00
14057;DHT22;7103;54.300;10.180;2023-05-14T00:38:04;9.80;1.00
14057;DHT22;7103;54.300;10.180;2023-05-14T00:40:31;9.80;1.00
14057;DHT22;7103;54.300;10.180;2023-05-14T00:42:58;9.80;1.00
14057;DHT22;7103;54.300;10.180;2023-05-14T00:45:25;9.90;1.00
14057;DHT22;7103;54.300;10.180;2023-05-14T00:47:52;10.00;1.00
14057;DHT22;7103;54.300;10.180;2023-05-14T00:50:20;10.10;1.00
14057;DHT22;7103;54.300;10.180;2023-05-14T00:52:48;10.20;1.00
14057;DHT22;7103;54.300;10.180;2023-05-14T00:55:15;10.30;1.00
14057;DHT22;7103;54.300;10.180;2023-05-14T00:57:43;10.40;1.00
14057;DHT22;7103;54.300;10.180;2023-05-14T01:00:10;10.50;1.00
14057;DHT22;7103;54.300;10.180;2023-05-14T01:02:38;10.60;1.00
14057;DHT22;7103;54.300;10.180;2023-05-14T01:05:06;10.60;1.00
14057;DHT22;7103;54.300;10.180;2023-05-14T01:08:11;10.70;1.00
14057;DHT22;7103;54.300;10.180;2023-05-14T01:14:19;10.50;1.00
14057;DHT22;7103;54.300;10.180;2023-05-14T01:16:53;10.40;1.00
14057;DHT22;7103;54.300;10.180;2023-05-14T01:19:38;10.40;1.00
14057;DHT22;7103;54.300;10.180;2023-05-14T01:22:06;10.30;1.00
14057;DHT22;7103;54.300;10.180;2023-05-14T01:24:33;10.50;1.00
14057;DHT22;7103;54.300;10.180;2023-05-14T01:29:55;10.50;1.00
14057;DHT22;7103;54.300;10.180;2023-05-14T01:32:25;10.50;1.00
14057;DHT22;7103;54.300;10.180;2023-05-14T01:34:54;10.50;1.00
14057;DHT22;7103;54.300;10.180;2023-05-14T01:37:24;10.60;1.00
14057;DHT22;7103;54.300;10.180;2023-05-14T01:39:52;10.70;1.00
14057;DHT22;7103;54.300;10.180;2023-05-14T01:42:20;10.80;1.00
14057;DHT22;7103;54.300;10.180;2023-05-14T01:44:47;10.80;1.00
14057;DHT22;7103;54.300;10.180;2023-05-14T01:47:14;10.90;1.00
14057;DHT22;7103;54.300;10.180;2023-05-14T01:49:41;10.90;1.00
14057;DHT22;7103;54.300;10.180;2023-05-14T01:52:08;11.00;1.00
14057;DHT22;7103;54.300;10.180;2023-05-14T01:54:35;11.10;1.00
14057;DHT22;7103;54.300;10.180;2023-05-14T01:57:02;11.10;1.00
14057;DHT22;7103;54.300;10.180;2023-05-14T01:59:29;11.10;1.00
14057;DHT22;7103;54.300;10.180;2023-05-14T02:01:56;11.10;1.00
14057;DHT22;7103;54.300;10.180;2023-05-14T02:04:23;11.10;1.00
14057;DHT22;7103;54.300;10.180;2023-05-14T02:06:50;11.10;1.00
14057;DHT22;7103;54.300;10.180;2023-05-14T02:09:17;11.10;1.00
14057;DHT22;7103;54.300;10.180;2023-05-14T02:11:44;11.20;1.00
14057;DHT22;7103;54.300;10.180;2023-05-14T02:14:11;11.20;1.00
14057;DHT22;7103;54.300;10.180;2023-05-14T02:16:40;11.20;1.00
14057;DHT22;7103;54.300;10.180;2023-05-14T02:19:07;11.20;1.00
14057;DHT22;7103;54.300;10.180;2023-05-14T02:21:34;11.30;1.00
14057;DHT22;7103;54.300;10.180;2023-05-14T02:24:01;11.20;1.00
14057;DHT22;7103;54.300;10.180;2023-05-14T02:26:29;11.30;1.00
14057;DHT22;7103;54.300;10.180;2023-05-14T02:28:56;11.30;1.00
14057;DHT22;7103;54.300;10.180;2023-05-14T02:31:23;11.30;1.00
14057;DHT22;7103;54.300;10.180;2023-05-14T02:33:50;11.40;1.00
14057;DHT22;7103;54.300;10.180;2023-05-14T02:36:17;11.40;1.00
14057;DHT22;7103;54.300;10.180;2023-05-14T02:38:44;11.30;1.00
14057;DHT22;7103;54.300;10.180;2023-05-14T02:41:11;11.30;1.00
14057;DHT22;7103;54.300;10.180;2023-05-14T02:43:38;11.20;1.00
14057;DHT22;7103;54.300;10.180;2023-05-14T02:46:05;11.20;1.00
14057;DHT22;7103;54.300;10.180;2023-05-14T02:48:32;11.30;1.00
14057;DHT22;7103;54.300;10.180;2023-05-14T02:50:59;11.30;1.00
14057;DHT22;7103;54.300;10.180;2023-05-14T02:53:26;11.20;1.00
14057;DHT22;7103;54.300;10.180;2023-05-14T02:55:53;11.30;1.00
14057;DHT22;7103;54.300;10.180;2023-05-14T02:58:20;11.20;1.00
14057;DHT22;7103;54.300;10.180;2023-05-14T03:00:54;11.20;1.00
14057;DHT22;7103;54.300;10.180;2023-05-14T03:03:21;11.10;1.00
14057;DHT22;7103;54.300;10.180;2023-05-14T03:05:48;11.20;1.00
14057;DHT22;7103;54.300;10.180;2023-05-14T03:08:15;11.20;1.00
14057;DHT22;7103;54.300;10.180;2023-05-14T03:10:42;11.20;1.00
14057;DHT22;7103;54.300;10.180;2023-05-14T03:13:09;11.20;1.00
14057;DHT22;7103;54.300;10.180;2023-05-14T03:15:36;11.30;1.00
14057;DHT22;7103;54.300;10.180;2023-05-14T03:18:03;11.30;1.00
14057;DHT22;7103;54.300;10.180;2023-05-14T03:20:31;11.30;1.00
14057;DHT22;7103;54.300;10.180;2023-05-14T03:22:58;11.30;1.00
14057;DHT22;7103;54.300;10.180;2023-05-14T03:25:24;11.40;1.00
14057;DHT22;7103;54.300;10.180;2023-05-14T03:27:52;11.40;1.00
14057;DHT22;7103;54.300;10.180;2023-05-14T03:30:19;11.50;1.00
14057;DHT22;7103;54.300;10.180;2023-05-14T03:32:46;11.40;1.00
14057;DHT22;7103;54.300;10.180;2023-05-14T03:35:13;11.50;1.00
14057;DHT22;7103;54.300;10.180;2023-05-14T03:37:40;11.60;1.00
14057;DHT22;7103;54.300;10.180;2023-05-14T03:40:07;11.70;1.00
14057;DHT22;7103;54.300;10.180;2023-05-14T03:42:34;11.90;1.00
14057;DHT22;7103;54.300;10.180;2023-05-14T03:45:01;11.90;1.00
14057;DHT22;7103;54.300;10.180;2023-05-14T03:47:28;12.00;1.00
14057;DHT22;7103;54.300;10.180;2023-05-14T03:49:55;12.00;1.00
14057;DHT22;7103;54.300;10.180;2023-05-14T03:52:22;11.90;1.00
14057;DHT22;7103;54.300;10.180;2023-05-14T03:54:49;11.90;1.00
14057;DHT22;7103;54.300;10.180;2023-05-14T03:57:16;11.90;1.00
14057;DHT22;7103;54.300;10.180;2023-05-14T03:59:43;12.00;1.00
14057;DHT22;7103;54.300;10.180;2023-05-14T04:02:10;12.00;1.00
14057;DHT22;7103;54.300;10.180;2023-05-14T04:04:37;12.10;1.00
14057;DHT22;7103;54.300;10.180;2023-05-14T04:07:04;12.10;1.00
14057;DHT22;7103;54.300;10.180;2023-05-14T04:09:31;12.20;1.00
14057;DHT22;7103;54.300;10.180;2023-05-14T04:11:58;12.10;1.00
14057;DHT22;7103;54.300;10.180;2023-05-14T04:14:25;12.00;1.00
14057;DHT22;7103;54.300;10.180;2023-05-14T04:16:52;12.00;1.00
14057;DHT22;7103;54.300;10.180;2023-05-14T04:19:19;11.90;1.00
14057;DHT22;7103;54.300;10.180;2023-05-14T04:21:46;11.80;1.00
14057;DHT22;7103;54.300;10.180;2023-05-14T04:24:13;11.90;1.00
14057;DHT22;7103;54.300;10.180;2023-05-14T04:26:40;12.00;1.00
14057;DHT22;7103;54.300;10.180;2023-05-14T04:29:07;12.00;1.00
14057;DHT22;7103;54.300;10.180;2023-05-14T04:31:34;12.10;1.00
14057;DHT22;7103;54.300;10.180;2023-05-14T04:34:01;12.10;1.00
14057;DHT22;7103;54.300;10.180;2023-05-14T04:36:28;12.20;1.00
14057;DHT22;7103;54.300;10.180;2023-05-14T04:38:55;12.30;1.00
14057;DHT22;7103;54.300;10.180;2023-05-14T04:41:22;12.40;1.00
14057;DHT22;7103;54.300;10.180;2023-05-14T04:43:49;12.60;1.00
14057;DHT22;7103;54.300;10.180;2023-05-14T04:46:16;12.70;1.00
14057;DHT22;7103;54.300;10.180;2023-05-14T04:48:43;12.90;1.00
14057;DHT22;7103;54.300;10.180;2023-05-14T04:51:10;12.90;1.00
14057;DHT22;7103;54.300;10.180;2023-05-14T04:53:37;12.90;1.00
14057;DHT22;7103;54.300;10.180;2023-05-14T04:56:04;13.10;1.00
14057;DHT22;7103;54.300;10.180;2023-05-14T04:58:31;13.20;1.00
14057;DHT22;7103;54.300;10.180;2023-05-14T05:01:01;13.30;1.00
14057;DHT22;7103;54.300;10.180;2023-05-14T05:03:28;13.30;1.00
14057;DHT22;7103;54.300;10.180;2023-05-14T05:05:55;13.40;1.00
14057;DHT22;7103;54.300;10.180;2023-05-14T05:08:22;13.50;1.00
14057;DHT22;7103;54.300;10.180;2023-05-14T05:10:49;13.60;1.00
14057;DHT22;7103;54.300;10.180;2023-05-14T05:13:16;13.70;1.00
14057;DHT22;7103;54.300;10.180;2023-05-14T05:15:43;13.90;1.00
14057;DHT22;7103;54.300;10.180;2023-05-14T05:18:10;14.00;1.00
14057;DHT22;7103;54.300;10.180;2023-05-14T05:20:37;14.10;1.00
14057;DHT22;7103;54.300;10.180;2023-05-14T05:23:04;14.20;1.00
14057;DHT22;7103;54.300;10.180;2023-05-14T05:25:31;14.40;1.00
14057;DHT22;7103;54.300;10.180;2023-05-14T05:27:58;14.40;1.00
14057;DHT22;7103;54.300;10.180;2023-05-14T05:30:25;14.60;1.00
14057;DHT22;7103;54.300;10.180;2023-05-14T05:32:52;14.90;1.00
14057;DHT22;7103;54.300;10.180;2023-05-14T05:35:19;15.30;1.00
14057;DHT22;7103;54.300;10.180;2023-05-14T05:37:46;15.80;1.00
14057;DHT22;7103;54.300;10.180;2023-05-14T05:40:13;16.40;1.00
14057;DHT22;7103;54.300;10.180;2023-05-14T05:42:41;17.20;1.00
14057;DHT22;7103;54.300;10.180;2023-05-14T05:45:08;18.00;1.00
14057;DHT22;7103;54.300;10.180;2023-05-14T05:47:35;18.50;1.00
14057;DHT22;7103;54.300;10.180;2023-05-14T05:50:02;18.60;99.90
14057;DHT22;7103;54.300;10.180;2023-05-14T05:52:29;18.70;99.90
14057;DHT22;7103;54.300;10.180;2023-05-14T05:54:56;18.80;99.90
14057;DHT22;7103;54.300;10.180;2023-05-14T05:57:23;18.70;99.90
14057;DHT22;7103;54.300;10.180;2023-05-14T05:59:52;18.60;99.90
14057;DHT22;7103;54.300;10.180;2023-05-14T06:02:19;18.80;99.90
14057;DHT22;7103;54.300;10.180;2023-05-14T06:04:46;19.00;99.90
14057;DHT22;7103;54.300;10.180;2023-05-14T06:07:13;18.90;99.90
14057;DHT22;7103;54.300;10.180;2023-05-14T06:09:40;18.90;99.90
14057;DHT22;7103;54.300;10.180;2023-05-14T06:12:08;19.10;99.90
14057;DHT22;7103;54.300;10.180;2023-05-14T06:14:35;19.40;99.90
14057;DHT22;7103;54.300;10.180;2023-05-14T06:17:02;19.30;99.90
14057;DHT22;7103;54.300;10.180;2023-05-14T06:19:29;19.10;99.90
14057;DHT22;7103;54.300;10.180;2023-05-14T06:21:56;19.10;99.90
14057;DHT22;7103;54.300;10.180;2023-05-14T06:24:23;19.20;99.90
14057;DHT22;7103;54.300;10.180;2023-05-14T06:26:50;19.10;99.90
14057;DHT22;7103;54.300;10.180;2023-05-14T06:29:16;19.70;99.90
14057;DHT22;7103;54.300;10.180;2023-05-14T06:31:44;20.40;99.90
14057;DHT22;7103;54.300;10.180;2023-05-14T06:34:11;20.60;99.90
14057;DHT22;7103;54.300;10.180;2023-05-14T06:36:38;20.90;99.90
14057;DHT22;7103;54.300;10.180;2023-05-14T06:39:05;21.10;99.90
14057;DHT22;7103;54.300;10.180;2023-05-14T06:41:32;21.30;99.90
14057;DHT22;7103;54.300;10.180;2023-05-14T06:43:59;21.40;99.90
14057;DHT22;7103;54.300;10.180;2023-05-14T06:46:26;21.30;99.90
14057;DHT22;7103;54.300;10.180;2023-05-14T06:48:53;21.50;99.90
14057;DHT22;7103;54.300;10.180;2023-05-14T06:51:23;22.00;99.90
14057;DHT22;7103;54.300;10.180;2023-05-14T06:53:49;22.50;99.90
14057;DHT22;7103;54.300;10.180;2023-05-14T06:56:19;22.90;99.90
14057;DHT22;7103;54.300;10.180;2023-05-14T06:58:47;23.40;99.90
14057;DHT22;7103;54.300;10.180;2023-05-14T07:01:15;23.60;99.90
14057;DHT22;7103;54.300;10.180;2023-05-14T07:03:42;23.70;99.90
14057;DHT22;7103;54.300;10.180;2023-05-14T07:06:09;24.00;99.90
14057;DHT22;7103;54.300;10.180;2023-05-14T07:08:39;24.60;99.90
14057;DHT22;7103;54.300;10.180;2023-05-14T07:11:06;24.90;99.90
14057;DHT22;7103;54.300;10.180;2023-05-14T07:13:33;24.90;99.90
14057;DHT22;7103;54.300;10.180;2023-05-14T07:16:00;25.30;99.90
14057;DHT22;7103;54.300;10.180;2023-05-14T07:18:27;25.10;99.90
14057;DHT22;7103;54.300;10.180;2023-05-14T07:20:54;24.90;99.90
14057;DHT22;7103;54.300;10.180;2023-05-14T07:23:21;25.20;99.90
14057;DHT22;7103;54.300;10.180;2023-05-14T07:25:48;25.30;99.90
14057;DHT22;7103;54.300;10.180;2023-05-14T07:28:15;25.50;99.90
14057;DHT22;7103;54.300;10.180;2023-05-14T07:30:42;25.50;99.90
14057;DHT22;7103;54.300;10.180;2023-05-14T07:33:09;25.10;99.90
14057;DHT22;7103;54.300;10.180;2023-05-14T07:35:36;25.50;99.90
14057;DHT22;7103;54.300;10.180;2023-05-14T07:38:03;25.70;99.90
14057;DHT22;7103;54.300;10.180;2023-05-14T07:40:31;26.20;99.90
14057;DHT22;7103;54.300;10.180;2023-05-14T07:42:58;26.10;99.90
14057;DHT22;7103;54.300;10.180;2023-05-14T07:45:25;26.30;99.90
14057;DHT22;7103;54.300;10.180;2023-05-14T07:47:52;26.40;99.90
14057;DHT22;7103;54.300;10.180;2023-05-14T07:50:19;26.40;99.90
14057;DHT22;7103;54.300;10.180;2023-05-14T07:52:47;26.10;99.90
14057;DHT22;7103;54.300;10.180;2023-05-14T07:55:14;26.50;99.90
14057;DHT22;7103;54.300;10.180;2023-05-14T07:57:41;26.70;99.90
14057;DHT22;7103;54.300;10.180;2023-05-14T08:00:08;26.90;99.90
14057;DHT22;7103;54.300;10.180;2023-05-14T08:02:35;27.40;99.90
14057;DHT22;7103;54.300;10.180;2023-05-14T08:05:02;26.90;99.90
14057;DHT22;7103;54.300;10.180;2023-05-14T08:07:30;26.50;99.90
14057;DHT22;7103;54.300;10.180;2023-05-14T08:09:57;26.10;99.90
14057;DHT22;7103;54.300;10.180;2023-05-14T08:12:24;26.40;99.90
14057;DHT22;7103;54.300;10.180;2023-05-14T08:14:52;27.10;99.90
14057;DHT22;7103;54.300;10.180;2023-05-14T08:17:19;26.90;99.90
14057;DHT22;7103;54.300;10.180;2023-05-14T08:19:46;27.10;99.90
14057;DHT22;7103;54.300;10.180;2023-05-14T08:22:13;26.50;99.90
14057;DHT22;7103;54.300;10.180;2023-05-14T08:24:40;26.60;99.90
14057;DHT22;7103;54.300;10.180;2023-05-14T08:27:08;26.70;99.90
14057;DHT22;7103;54.300;10.180;2023-05-14T08:29:35;26.70;99.90
14057;DHT22;7103;54.300;10.180;2023-05-14T08:32:03;26.90;99.90
14057;DHT22;7103;54.300;10.180;2023-05-14T08:34:48;27.20;99.90
14057;DHT22;7103;54.300;10.180;2023-05-14T08:37:15;27.80;99.90
14057;DHT22;7103;54.300;10.180;2023-05-14T08:39:42;27.80;99.90
14057;DHT22;7103;54.300;10.180;2023-05-14T08:42:11;28.50;99.90
14057;DHT22;7103;54.300;10.180;2023-05-14T08:44:46;28.80;99.90
14057;DHT22;7103;54.300;10.180;2023-05-14T08:47:15;28.90;99.90
14057;DHT22;7103;54.300;10.180;2023-05-14T08:49:46;29.00;99.90
14057;DHT22;7103;54.300;10.180;2023-05-14T08:52:15;28.90;99.90
14057;DHT22;7103;54.300;10.180;2023-05-14T08:54:45;28.90;99.90
14057;DHT22;7103;54.300;10.180;2023-05-14T08:57:13;29.30;99.90
14057;DHT22;7103;54.300;10.180;2023-05-14T08:59:40;28.70;99.90
14057;DHT22;7103;54.300;10.180;2023-05-14T09:02:09;28.70;99.90
14057;DHT22;7103;54.300;10.180;2023-05-14T09:04:38;28.80;99.90
14057;DHT22;7103;54.300;10.180;2023-05-14T09:07:06;29.10;99.90
14057;DHT22;7103;54.300;10.180;2023-05-14T09:09:33;28.80;99.90
14057;DHT22;7103;54.300;10.180;2023-05-14T09:12:01;28.70;99.90
14057;DHT22;7103;54.300;10.180;2023-05-14T09:14:28;28.50;99.90
14057;DHT22;7103;54.300;10.180;2023-05-14T09:16:54;28.20;99.90
14057;DHT22;7103;54.300;10.180;2023-05-14T09:19:23;28.10;99.90
14057;DHT22;7103;54.300;10.180;2023-05-14T09:21:50;27.70;99.90
14057;DHT22;7103;54.300;10.180;2023-05-14T09:24:23;27.70;99.90
14057;DHT22;7103;54.300;10.180;2023-05-14T09:26:54;27.70;99.90
14057;DHT22;7103;54.300;10.180;2023-05-14T09:29:28;27.50;99.90
14057;DHT22;7103;54.300;10.180;2023-05-14T09:31:56;27.60;99.90
14057;DHT22;7103;54.300;10.180;2023-05-14T09:34:28;28.10;99.90
14057;DHT22;7103;54.300;10.180;2023-05-14T09:36:56;28.50;99.90
14057;DHT22;7103;54.300;10.180;2023-05-14T09:39:25;29.00;99.90
14057;DHT22;7103;54.300;10.180;2023-05-14T09:41:52;29.30;99.90
14057;DHT22;7103;54.300;10.180;2023-05-14T09:44:20;29.30;99.90
14057;DHT22;7103;54.300;10.180;2023-05-14T09:46:48;29.00;99.90
14057;DHT22;7103;54.300;10.180;2023-05-14T09:49:16;28.70;99.90
14057;DHT22;7103;54.300;10.180;2023-05-14T09:51:43;28.40;99.90
14057;DHT22;7103;54.300;10.180;2023-05-14T09:54:10;28.70;99.90
14057;DHT22;7103;54.300;10.180;2023-05-14T09:56:37;27.30;99.90
14057;DHT22;7103;54.300;10.180;2023-05-14T09:59:05;27.70;99.90
14057;DHT22;7103;54.300;10.180;2023-05-14T10:01:32;28.30;99.90
14057;DHT22;7103;54.300;10.180;2023-05-14T10:03:59;28.80;99.90
14057;DHT22;7103;54.300;10.180;2023-05-14T10:06:32;29.40;99.90
14057;DHT22;7103;54.300;10.180;2023-05-14T10:09:04;29.60;99.90
14057;DHT22;7103;54.300;10.180;2023-05-14T10:11:33;29.30;99.90
14057;DHT22;7103;54.300;10.180;2023-05-14T10:14:09;29.60;99.90
14057;DHT22;7103;54.300;10.180;2023-05-14T10:16:40;29.90;99.90
14057;DHT22;7103;54.300;10.180;2023-05-14T10:19:10;29.80;99.90
14057;DHT22;7103;54.300;10.180;2023-05-14T10:21:39;29.60;99.90
14057;DHT22;7103;54.300;10.180;2023-05-14T10:24:08;29.40;99.90
14057;DHT22;7103;54.300;10.180;2023-05-14T10:26:37;29.20;99.90
14057;DHT22;7103;54.300;10.180;2023-05-14T10:29:05;29.60;99.90
14057;DHT22;7103;54.300;10.180;2023-05-14T10:31:51;29.90;99.90
14057;DHT22;7103;54.300;10.180;2023-05-14T10:34:31;30.00;99.90
14057;DHT22;7103;54.300;10.180;2023-05-14T10:37:03;29.70;99.90
14057;DHT22;7103;54.300;10.180;2023-05-14T10:39:50;29.50;99.90
14057;DHT22;7103;54.300;10.180;2023-05-14T10:44:58;28.30;99.90
14057;DHT22;7103;54.300;10.180;2023-05-14T10:47:28;28.00;99.90
14057;DHT22;7103;54.300;10.180;2023-05-14T10:49:57;27.80;99.90
14057;DHT22;7103;54.300;10.180;2023-05-14T10:52:25;27.80;99.90
14057;DHT22;7103;54.300;10.180;2023-05-14T10:54:57;27.80;99.90
14057;DHT22;7103;54.300;10.180;2023-05-14T10:57:30;28.30;99.90
14057;DHT22;7103;54.300;10.180;2023-05-14T10:59:59;28.50;99.90
14057;DHT22;7103;54.300;10.180;2023-05-14T11:02:37;28.30;99.90
14057;DHT22;7103;54.300;10.180;2023-05-14T11:05:10;28.80;99.90
14057;DHT22;7103;54.300;10.180;2023-05-14T11:10:13;28.00;99.90
14057;DHT22;7103;54.300;10.180;2023-05-14T11:12:46;27.70;99.90
14057;DHT22;7103;54.300;10.180;2023-05-14T11:15:19;28.00;99.90
14057;DHT22;7103;54.300;10.180;2023-05-14T11:17:46;27.70;99.90
14057;DHT22;7103;54.300;10.180;2023-05-14T11:20:14;28.10;99.90
14057;DHT22;7103;54.300;10.180;2023-05-14T11:22:43;28.50;99.90
14057;DHT22;7103;54.300;10.180;2023-05-14T11:25:11;28.70;99.90
14057;DHT22;7103;54.300;10.180;2023-05-14T11:27:43;28.70;99.90
14057;DHT22;7103;54.300;10.180;2023-05-14T11:30:20;28.70;99.90
14057;DHT22;7103;54.300;10.180;2023-05-14T11:32:48;28.30;99.90
14057;DHT22;7103;54.300;10.180;2023-05-14T11:35:16;28.60;99.90
14057;DHT22;7103;54.300;10.180;2023-05-14T11:37:49;28.30;99.90
14057;DHT22;7103;54.300;10.180;2023-05-14T11:40:19;28.40;99.90
14057;DHT22;7103;54.300;10.180;2023-05-14T11:42:50;28.30;99.90
14057;DHT22;7103;54.300;10.180;2023-05-14T11:45:26;27.60;99.90
14057;DHT22;7103;54.300;10.180;2023-05-14T11:47:53;27.60;99.90
14057;DHT22;7103;54.300;10.180;2023-05-14T11:50:23;27.30;99.90
14057;DHT22;7103;54.300;10.180;2023-05-14T11:52:54;27.00;99.90
14057;DHT22;7103;54.300;10.180;2023-05-14T11:55:21;26.60;99.90
14057;DHT22;7103;54.300;10.180;2023-05-14T11:57:50;26.50;99.90
14057;DHT22;7103;54.300;10.180;2023-05-14T12:00:18;26.20;99.90
14057;DHT22;7103;54.300;10.180;2023-05-14T12:02:48;25.70;99.90
14057;DHT22;7103;54.300;10.180;2023-05-14T12:05:16;25.70;99.90
14057;DHT22;7103;54.300;10.180;2023-05-14T12:07:44;24.70;99.90
14057;DHT22;7103;54.300;10.180;2023-05-14T12:10:12;24.60;99.90
14057;DHT22;7103;54.300;10.180;2023-05-14T12:12:39;24.50;99.90
14057;DHT22;7103;54.300;10.180;2023-05-14T12:15:10;24.40;99.90
14057;DHT22;7103;54.300;10.180;2023-05-14T12:17:38;24.50;99.90
14057;DHT22;7103;54.300;10.180;2023-05-14T12:20:08;24.50;99.90
14057;DHT22;7103;54.300;10.180;2023-05-14T12:22:40;24.70;99.90
14057;DHT22;7103;54.300;10.180;2023-05-14T12:25:12;25.10;99.90
14057;DHT22;7103;54.300;10.180;2023-05-14T12:27:40;25.70;99.90
14057;DHT22;7103;54.300;10.180;2023-05-14T12:30:11;25.70;99.90
14057;DHT22;7103;54.300;10.180;2023-05-14T12:32:47;25.40;99.90
14057;DHT22;7103;54.300;10.180;2023-05-14T12:35:19;24.90;99.90
14057;DHT22;7103;54.300;10.180;2023-05-14T12:37:47;24.80;99.90
14057;DHT22;7103;54.300;10.180;2023-05-14T12:40:14;25.10;99.90
14057;DHT22;7103;54.300;10.180;2023-05-14T12:42:41;25.50;99.90
14057;DHT22;7103;54.300;10.180;2023-05-14T12:45:08;25.80;99.90
14057;DHT22;7103;54.300;10.180;2023-05-14T12:47:35;26.10;99.90
14057;DHT22;7103;54.300;10.180;2023-05-14T12:50:03;26.30;99.90
14057;DHT22;7103;54.300;10.180;2023-05-14T12:52:30;26.50;99.90
14057;DHT22;7103;54.300;10.180;2023-05-14T12:55:00;26.40;99.90
14057;DHT22;7103;54.300;10.180;2023-05-14T12:57:27;26.10;99.90
14057;DHT22;7103;54.300;10.180;2023-05-14T12:59:56;25.30;99.90
14057;DHT22;7103;54.300;10.180;2023-05-14T13:02:23;25.20;99.90
14057;DHT22;7103;54.300;10.180;2023-05-14T13:04:50;25.10;99.90
14057;DHT22;7103;54.300;10.180;2023-05-14T13:07:17;25.00;99.90
14057;DHT22;7103;54.300;10.180;2023-05-14T13:09:44;25.00;99.90
14057;DHT22;7103;54.300;10.180;2023-05-14T13:12:11;25.00;99.90
14057;DHT22;7103;54.300;10.180;2023-05-14T13:14:38;24.90;99.90
14057;DHT22;7103;54.300;10.180;2023-05-14T13:17:04;25.20;99.90
14057;DHT22;7103;54.300;10.180;2023-05-14T13:19:33;25.70;99.90
14057;DHT22;7103;54.300;10.180;2023-05-14T13:22:01;25.80;99.90
14057;DHT22;7103;54.300;10.180;2023-05-14T13:24:28;25.70;99.90
14057;DHT22;7103;54.300;10.180;2023-05-14T13:26:54;25.80;99.90
14057;DHT22;7103;54.300;10.180;2023-05-14T13:29:23;25.80;99.90
14057;DHT22;7103;54.300;10.180;2023-05-14T13:31:50;25.60;99.90
14057;DHT22;7103;54.300;10.180;2023-05-14T13:34:17;25.30;99.90
14057;DHT22;7103;54.300;10.180;2023-05-14T13:36:44;25.20;99.90
14057;DHT22;7103;54.300;10.180;2023-05-14T13:39:12;24.80;99.90
14057;DHT22;7103;54.300;10.180;2023-05-14T13:41:40;24.30;99.90
14057;DHT22;7103;54.300;10.180;2023-05-14T13:44:07;24.10;99.90
14057;DHT22;7103;54.300;10.180;2023-05-14T13:46:34;24.00;99.90
14057;DHT22;7103;54.300;10.180;2023-05-14T13:49:01;24.00;99.90
14057;DHT22;7103;54.300;10.180;2023-05-14T13:51:28;23.90;99.90
14057;DHT22;7103;54.300;10.180;2023-05-14T13:53:55;23.90;99.90
14057;DHT22;7103;54.300;10.180;2023-05-14T13:56:22;23.80;99.90
14057;DHT22;7103;54.300;10.180;2023-05-14T13:58:49;24.10;99.90
14057;DHT22;7103;54.300;10.180;2023-05-14T14:01:16;24.10;99.90
14057;DHT22;7103;54.300;10.180;2023-05-14T14:03:43;23.70;99.90
14057;DHT22;7103;54.300;10.180;2023-05-14T14:06:10;23.40;99.90
14057;DHT22;7103;54.300;10.180;2023-05-14T14:08:37;23.00;99.90
14057;DHT22;7103;54.300;10.180;2023-05-14T14:11:04;22.80;99.90
14057;DHT22;7103;54.300;10.180;2023-05-14T14:13:31;22.60;99.90
14057;DHT22;7103;54.300;10.180;2023-05-14T14:15:59;22.50;99.90
14057;DHT22;7103;54.300;10.180;2023-05-14T14:18:26;22.40;99.90
14057;DHT22;7103;54.300;10.180;2023-05-14T14:20:53;22.40;99.90
14057;DHT22;7103;54.300;10.180;2023-05-14T14:23:20;22.50;99.90
14057;DHT22;7103;54.300;10.180;2023-05-14T14:25:47;22.20;99.90
14057;DHT22;7103;54.300;10.180;2023-05-14T14:28:14;22.30;99.90
14057;DHT22;7103;54.300;10.180;2023-05-14T14:30:42;22.40;99.90
14057;DHT22;7103;54.300;10.180;2023-05-14T14:33:09;22.30;99.90
14057;DHT22;7103;54.300;10.180;2023-05-14T14:35:37;22.20;99.90
14057;DHT22;7103;54.300;10.180;2023-05-14T14:38:04;22.10;99.90
14057;DHT22;7103;54.300;10.180;2023-05-14T14:40:32;21.90;99.90
14057;DHT22;7103;54.300;10.180;2023-05-14T14:43:00;22.10;99.90
14057;DHT22;7103;54.300;10.180;2023-05-14T14:45:27;22.20;99.90
14057;DHT22;7103;54.300;10.180;2023-05-14T14:48:21;22.30;99.90
14057;DHT22;7103;54.300;10.180;2023-05-14T14:50:48;22.30;99.90
14057;DHT22;7103;54.300;10.180;2023-05-14T14:53:15;22.30;99.90
14057;DHT22;7103;54.300;10.180;2023-05-14T14:55:42;22.20;99.90
14057;DHT22;7103;54.300;10.180;2023-05-14T14:58:09;22.10;99.90
14057;DHT22;7103;54.300;10.180;2023-05-14T15:00:36;22.00;99.90
14057;DHT22;7103;54.300;10.180;2023-05-14T15:03:05;22.00;99.90
14057;DHT22;7103;54.300;10.180;2023-05-14T15:05:33;22.10;99.90
14057;DHT22;7103;54.300;10.180;2023-05-14T15:08:00;22.10;99.90
14057;DHT22;7103;54.300;10.180;2023-05-14T15:10:27;22.20;99.90
14057;DHT22;7103;54.300;10.180;2023-05-14T15:12:58;22.00;99.90
14057;DHT22;7103;54.300;10.180;2023-05-14T15:15:25;21.90;99.90
14057;DHT22;7103;54.300;10.180;2023-05-14T15:17:52;21.90;99.90
14057;DHT22;7103;54.300;10.180;2023-05-14T15:20:19;22.20;99.90
14057;DHT22;7103;54.300;10.180;2023-05-14T15:22:46;22.40;99.90
14057;DHT22;7103;54.300;10.180;2023-05-14T15:25:14;22.60;99.90
14057;DHT22;7103;54.300;10.180;2023-05-14T15:27:41;22.60;99.90
14057;DHT22;7103;54.300;10.180;2023-05-14T15:30:08;22.50;99.90
14057;DHT22;7103;54.300;10.180;2023-05-14T15:32:36;22.50;99.90
14057;DHT22;7103;54.300;10.180;2023-05-14T15:35:03;22.50;99.90
14057;DHT22;7103;54.300;10.180;2023-05-14T15:37:42;22.40;99.90
14057;DHT22;7103;54.300;10.180;2023-05-14T15:40:10;22.20;99.90
14057;DHT22;7103;54.300;10.180;2023-05-14T15:42:39;22.10;99.90
14057;DHT22;7103;54.300;10.180;2023-05-14T15:45:09;22.10;99.90
14057;DHT22;7103;54.300;10.180;2023-05-14T15:47:36;21.90;99.90
14057;DHT22;7103;54.300;10.180;2023-05-14T15:50:03;21.70;99.90
14057;DHT22;7103;54.300;10.180;2023-05-14T15:52:31;21.70;99.90
14057;DHT22;7103;54.300;10.180;2023-05-14T15:54:58;21.70;99.90